Time;durP1;ratioP1;P1;durP2;ratioP2;P2;SDS_P1;SDS_P2;PMS_P1;PMS_P2;Temp;Humidity;BMP_temperature;BMP_pressure;BME280_temperature;BME280_humidity;BME280_pressure;Samples;Min_cycle;Max_cycle;Signal;HPM_P1;HPM_P2
2024/01/07 00:00:00;;;;;;;8.98;1.88;;;4.40;99.90;;;;;;4982657;28;20146;-70
2024/01/07 00:02:27;;;;;;;4.60;1.67;;;4.40;99.90;;;;;;5001735;28;20126;-69
2024/01/07 00:04:53;;;;;;;9.55;1.63;;;4.30;99.90;;;;;;5003258;28;20045;-69
2024/01/07 00:07:21;;;;;;;10.52;1.52;;;4.30;99.90;;;;;;5005129;28;20046;-70
2024/01/07 00:09:47;;;;;;;2.08;1.40;;;4.30;99.90;;;;;;5004792;28;20045;-70
2024/01/07 00:12:14;;;;;;;8.20;1.83;;;4.20;99.90;;;;;;4999819;28;20038;-70
2024/01/07 00:14:41;;;;;;;10.50;1.88;;;4.20;99.90;;;;;;5002003;28;20045;-70
2024/01/07 00:17:09;;;;;;;3.53;1.15;;;4.20;99.90;;;;;;5005116;28;20038;-69
2024/01/07 00:19:38;;;;;;;9.48;1.27;;;4.10;99.90;;;;;;4987518;28;20046;-70
2024/01/07 00:22:05;;;;;;;6.22;1.95;;;4.20;99.90;;;;;;5003769;28;20042;-70
2024/01/07 00:24:32;;;;;;;5.00;1.73;;;4.20;99.90;;;;;;5001534;28;20179;-70
2024/01/07 00:26:59;;;;;;;7.68;2.65;;;4.20;99.90;;;;;;5005661;28;20057;-69
2024/01/07 00:29:26;;;;;;;3.25;1.45;;;4.10;99.90;;;;;;4986762;28;20045;-70
2024/01/07 00:31:53;;;;;;;4.70;1.35;;;4.10;99.90;;;;;;4657859;28;10000116;-69
2024/01/07 00:34:20;;;;;;;6.90;1.70;;;4.10;99.90;;;;;;5002122;28;20078;-69
2024/01/07 00:36:47;;;;;;;6.30;1.98;;;4.00;99.90;;;;;;5004988;28;20066;-69
2024/01/07 00:39:14;;;;;;;7.45;1.52;;;4.00;99.90;;;;;;5004153;28;20077;-70
2024/01/07 00:41:40;;;;;;;7.35;1.73;;;4.00;99.90;;;;;;5003244;28;20489;-69
2024/01/07 00:44:07;;;;;;;3.25;1.30;;;4.00;99.90;;;;;;5003226;28;20045;-69
2024/01/07 00:46:34;;;;;;;4.93;1.20;;;4.00;99.90;;;;;;5001319;28;20185;-69
2024/01/07 00:49:01;;;;;;;3.20;1.15;;;3.90;99.90;;;;;;5002286;28;20049;-70
2024/01/07 00:51:28;;;;;;;4.88;1.85;;;3.80;99.90;;;;;;4996591;28;20050;-70
2024/01/07 00:53:55;;;;;;;5.65;1.38;;;3.80;99.90;;;;;;5001027;28;20046;-69
2024/01/07 00:56:25;;;;;;;8.77;1.85;;;3.80;99.90;;;;;;5001177;28;20046;-70
2024/01/07 00:58:51;;;;;;;6.82;1.40;;;3.80;99.90;;;;;;4999781;28;20061;-70
2024/01/07 01:01:18;;;;;;;5.88;1.77;;;3.80;99.90;;;;;;4984366;28;20049;-69
2024/01/07 01:03:45;;;;;;;6.40;1.35;;;3.70;99.90;;;;;;5001972;28;20045;-69
2024/01/07 01:06:12;;;;;;;4.20;1.52;;;3.70;99.90;;;;;;5001113;28;20077;-69
2024/01/07 01:08:40;;;;;;;6.63;1.23;;;3.70;99.90;;;;;;5002675;28;20060;-70
2024/01/07 01:11:09;;;;;;;5.72;1.83;;;3.60;99.90;;;;;;4999621;28;20053;-69
2024/01/07 01:13:36;;;;;;;12.00;2.40;;;3.50;99.90;;;;;;4998491;28;20058;-70
2024/01/07 01:16:03;;;;;;;4.93;1.30;;;3.50;99.90;;;;;;5004441;28;20081;-69
2024/01/07 01:18:30;;;;;;;6.32;2.25;;;3.50;99.90;;;;;;5001089;28;20133;-70
2024/01/07 01:20:57;;;;;;;8.43;3.55;;;3.50;99.90;;;;;;5002965;28;20501;-70
2024/01/07 01:23:24;;;;;;;3.42;1.20;;;3.50;99.90;;;;;;5003233;28;20057;-69
2024/01/07 01:25:51;;;;;;;8.10;1.85;;;3.40;99.90;;;;;;5004369;28;20511;-69
2024/01/07 01:28:18;;;;;;;7.88;1.30;;;3.50;99.90;;;;;;5001106;28;20154;-69
2024/01/07 01:30:44;;;;;;;5.50;1.50;;;3.40;99.90;;;;;;5001555;28;20385;-69
2024/01/07 01:33:11;;;;;;;9.32;1.60;;;3.40;99.90;;;;;;4999760;28;20054;-69
2024/01/07 01:35:38;;;;;;;6.43;2.25;;;3.30;99.90;;;;;;5003370;28;20073;-69
2024/01/07 01:38:05;;;;;;;4.47;1.50;;;3.30;99.90;;;;;;5003115;28;20054;-70
2024/01/07 01:40:32;;;;;;;4.93;1.25;;;3.30;99.90;;;;;;5001681;28;20420;-69
2024/01/07 01:42:58;;;;;;;7.60;1.88;;;3.20;99.90;;;;;;4986505;28;20046;-70
2024/01/07 01:45:25;;;;;;;8.90;1.58;;;3.20;99.90;;;;;;4984317;28;20045;-70
2024/01/07 01:47:52;;;;;;;6.10;1.30;;;3.20;99.90;;;;;;4999949;28;20049;-69
2024/01/07 01:50:19;;;;;;;5.22;1.70;;;3.20;99.90;;;;;;5003528;28;20037;-70
2024/01/07 01:52:46;;;;;;;6.50;1.50;;;3.20;99.90;;;;;;4999395;28;20038;-70
2024/01/07 01:55:13;;;;;;;4.60;1.40;;;3.20;99.90;;;;;;4981845;28;20045;-69
2024/01/07 01:57:40;;;;;;;6.75;1.33;;;3.20;99.90;;;;;;4986451;28;20063;-70
2024/01/07 02:00:08;;;;;;;5.25;1.35;;;3.10;99.90;;;;;;4986157;28;20092;-70
2024/01/07 02:02:35;;;;;;;8.10;1.73;;;3.10;99.90;;;;;;5005419;28;20466;-70
2024/01/07 02:05:03;;;;;;;5.40;1.38;;;3.10;99.90;;;;;;5006798;28;20081;-70
2024/01/07 02:07:30;;;;;;;8.27;1.80;;;3.00;99.90;;;;;;5010308;28;20045;-70
2024/01/07 02:09:57;;;;;;;6.68;1.85;;;3.00;99.90;;;;;;5009355;28;20108;-70
2024/01/07 02:12:24;;;;;;;6.05;1.60;;;3.00;99.90;;;;;;5004978;28;20068;-70
2024/01/07 02:14:50;;;;;;;13.07;1.30;;;3.10;99.90;;;;;;5017263;28;20053;-70
2024/01/07 02:17:18;;;;;;;4.47;1.65;;;3.00;99.90;;;;;;5001415;28;20042;-71
2024/01/07 02:19:45;;;;;;;10.52;1.55;;;3.00;99.90;;;;;;4989307;28;20097;-70
2024/01/07 02:22:12;;;;;;;8.13;1.42;;;3.00;99.90;;;;;;5005525;28;20092;-70
2024/01/07 02:24:39;;;;;;;11.43;1.13;;;3.00;99.90;;;;;;5004827;28;20536;-70
2024/01/07 02:27:06;;;;;;;6.68;1.35;;;2.90;99.90;;;;;;4986773;28;20056;-69
2024/01/07 02:29:32;;;;;;;4.97;1.67;;;2.90;99.90;;;;;;4998685;28;20489;-70
2024/01/07 02:31:59;;;;;;;9.52;1.70;;;2.90;99.90;;;;;;5005609;28;20061;-68
2024/01/07 02:34:26;;;;;;;4.60;2.00;;;2.90;99.90;;;;;;5005583;28;20057;-70
2024/01/07 02:36:53;;;;;;;8.23;1.67;;;2.90;99.90;;;;;;5002556;28;20043;-70
2024/01/07 02:39:20;;;;;;;2.28;1.17;;;2.90;99.90;;;;;;5008724;28;20128;-68
2024/01/07 02:41:47;;;;;;;4.93;1.35;;;2.90;99.90;;;;;;5005994;28;20057;-68
2024/01/07 02:44:13;;;;;;;7.95;2.30;;;2.90;99.90;;;;;;5007010;28;20119;-68
2024/01/07 02:46:40;;;;;;;4.25;1.60;;;2.80;99.90;;;;;;5004322;28;20104;-70
2024/01/07 02:49:07;;;;;;;4.88;1.63;;;2.80;99.90;;;;;;4995045;28;20518;-70
2024/01/07 02:51:34;;;;;;;6.68;1.73;;;2.80;99.90;;;;;;4994880;28;20453;-69
2024/01/07 02:54:01;;;;;;;10.63;1.88;;;2.80;99.90;;;;;;4998557;28;20053;-70
2024/01/07 02:56:27;;;;;;;8.77;2.35;;;2.80;99.90;;;;;;5005679;28;20038;-69
2024/01/07 02:58:54;;;;;;;8.38;1.60;;;2.80;99.90;;;;;;5003271;28;20297;-69
2024/01/07 03:01:24;;;;;;;5.57;1.48;;;2.80;99.90;;;;;;4994249;28;20108;-69
2024/01/07 03:03:51;;;;;;;8.88;1.63;;;2.80;99.90;;;;;;5003855;28;20133;-69
2024/01/07 03:06:18;;;;;;;6.35;1.73;;;2.80;99.90;;;;;;4988302;28;20108;-69
2024/01/07 03:08:45;;;;;;;9.13;1.80;;;2.70;99.90;;;;;;5005105;28;20050;-69
2024/01/07 03:11:12;;;;;;;4.47;1.40;;;2.70;99.90;;;;;;4999087;28;20050;-69
2024/01/07 03:13:40;;;;;;;9.52;2.63;;;2.70;99.90;;;;;;4990860;28;20045;-69
2024/01/07 03:16:06;;;;;;;3.90;1.10;;;2.70;99.90;;;;;;5010928;28;20053;-69
2024/01/07 03:18:33;;;;;;;6.05;2.22;;;2.70;99.90;;;;;;5009758;28;20080;-73
2024/01/07 03:21:00;;;;;;;5.20;1.45;;;2.60;99.90;;;;;;5011090;28;20046;-69
2024/01/07 03:23:28;;;;;;;5.72;1.15;;;2.60;99.90;;;;;;5008812;28;20054;-69
2024/01/07 03:25:54;;;;;;;5.50;2.22;;;2.60;99.90;;;;;;5008188;28;20488;-69
2024/01/07 03:28:21;;;;;;;4.93;1.42;;;2.60;99.90;;;;;;4953465;28;20058;-69
2024/01/07 03:30:48;;;;;;;3.50;1.30;;;2.50;99.90;;;;;;5006029;28;20116;-69
2024/01/07 03:33:15;;;;;;;3.13;1.38;;;2.60;99.90;;;;;;4988851;28;20120;-69
2024/01/07 03:35:42;;;;;;;8.93;1.20;;;2.60;99.90;;;;;;4999545;28;20111;-68
2024/01/07 03:38:09;;;;;;;3.97;1.45;;;2.50;99.90;;;;;;5008167;28;20119;-69
2024/01/07 03:40:35;;;;;;;5.32;1.60;;;2.50;99.90;;;;;;5011302;28;20076;-69
2024/01/07 03:43:02;;;;;;;1.60;1.00;;;2.50;99.90;;;;;;5011793;28;20131;-69
2024/01/07 03:45:29;;;;;;;4.82;1.30;;;2.50;99.90;;;;;;5003223;28;20110;-68
2024/01/07 03:47:56;;;;;;;7.97;1.50;;;2.50;99.90;;;;;;4993921;28;20111;-68
2024/01/07 03:50:23;;;;;;;5.32;1.35;;;2.50;99.90;;;;;;5005840;28;20133;-68
2024/01/07 03:52:50;;;;;;;5.80;1.05;;;2.40;99.90;;;;;;4999025;28;20077;-69
2024/01/07 03:55:17;;;;;;;6.60;1.33;;;2.40;99.90;;;;;;5003236;28;20049;-70
2024/01/07 03:57:43;;;;;;;2.10;0.90;;;2.40;99.90;;;;;;5010839;28;20045;-68
2024/01/07 04:00:11;;;;;;;6.15;1.58;;;2.40;99.90;;;;;;5012866;28;20054;-69
2024/01/07 04:02:38;;;;;;;6.80;1.23;;;2.40;99.90;;;;;;5008052;28;20042;-68
2024/01/07 04:05:05;;;;;;;3.83;1.33;;;2.40;99.90;;;;;;5005663;28;20053;-68
2024/01/07 04:07:32;;;;;;;5.88;1.08;;;2.40;99.90;;;;;;5006677;28;20049;-69
2024/01/07 04:09:58;;;;;;;9.90;1.67;;;2.40;99.90;;;;;;5007667;28;20081;-70
2024/01/07 04:12:25;;;;;;;4.70;1.58;;;2.40;99.90;;;;;;4986446;28;20069;-68
2024/01/07 04:14:52;;;;;;;3.85;1.08;;;2.40;99.90;;;;;;5003084;28;20046;-69
2024/01/07 04:17:19;;;;;;;5.60;0.82;;;2.50;99.90;;;;;;4976488;28;20053;-70
2024/01/07 04:19:46;;;;;;;8.88;2.38;;;2.40;99.90;;;;;;5006798;28;20053;-69
2024/01/07 04:22:12;;;;;;;3.38;1.10;;;2.50;99.90;;;;;;5008577;28;20056;-69
2024/01/07 04:24:41;;;;;;;5.35;1.15;;;2.30;99.90;;;;;;4998325;28;20049;-68
2024/01/07 04:27:08;;;;;;;4.35;1.00;;;2.30;99.90;;;;;;5007031;28;20042;-68
2024/01/07 04:29:35;;;;;;;2.42;1.20;;;2.30;99.90;;;;;;5007675;28;20748;-68
2024/01/07 04:32:02;;;;;;;8.38;1.17;;;2.30;99.90;;;;;;5002573;28;20073;-69
2024/01/07 04:34:29;;;;;;;9.00;1.52;;;2.30;99.90;;;;;;5002243;28;20093;-68
2024/01/07 04:36:56;;;;;;;5.15;1.13;;;2.30;99.90;;;;;;5006103;28;20060;-68
2024/01/07 04:39:23;;;;;;;7.10;1.40;;;2.40;99.90;;;;;;4988149;28;20042;-68
2024/01/07 04:41:50;;;;;;;5.22;1.08;;;2.30;99.90;;;;;;5005931;28;20100;-68
2024/01/07 04:44:17;;;;;;;3.05;0.75;;;2.40;99.90;;;;;;5006702;28;20116;-69
2024/01/07 04:46:44;;;;;;;5.60;1.00;;;2.30;99.90;;;;;;5007203;28;20100;-68
2024/01/07 04:49:11;;;;;;;8.13;1.08;;;2.40;99.90;;;;;;5001887;28;20551;-68
2024/01/07 04:51:38;;;;;;;4.00;1.15;;;2.30;99.90;;;;;;4992498;28;20046;-69
2024/01/07 04:54:05;;;;;;;4.60;1.85;;;2.30;99.90;;;;;;5008502;28;20077;-69
2024/01/07 04:56:33;;;;;;;12.52;1.75;;;2.30;99.90;;;;;;5005636;28;20045;-69
2024/01/07 04:58:59;;;;;;;3.70;1.25;;;2.30;99.90;;;;;;5006733;28;20108;-69
2024/01/07 05:01:26;;;;;;;4.93;1.55;;;2.30;99.90;;;;;;4966768;28;20042;-69
2024/01/07 05:03:53;;;;;;;4.43;1.17;;;2.30;99.90;;;;;;5007354;28;20049;-68
2024/01/07 05:06:20;;;;;;;6.72;1.38;;;2.30;99.90;;;;;;4992824;28;20046;-68
2024/01/07 05:08:47;;;;;;;6.22;1.10;;;2.30;99.90;;;;;;5005393;28;20060;-69
2024/01/07 05:11:14;;;;;;;3.28;1.10;;;2.30;99.90;;;;;;5006008;28;20045;-71
2024/01/07 05:13:41;;;;;;;4.43;0.95;;;2.30;99.90;;;;;;5007620;28;20037;-68
2024/01/07 05:16:07;;;;;;;6.82;1.13;;;2.30;99.90;;;;;;5001831;28;20065;-68
2024/01/07 05:18:34;;;;;;;6.68;1.30;;;2.30;99.90;;;;;;5006555;28;20191;-69
2024/01/07 05:21:01;;;;;;;6.72;1.20;;;2.30;99.90;;;;;;5002973;28;20053;-70
2024/01/07 05:23:28;;;;;;;6.40;1.20;;;2.40;99.90;;;;;;5006359;28;20054;-69
2024/01/07 05:25:55;;;;;;;5.30;1.17;;;2.40;99.90;;;;;;5006533;28;20409;-69
2024/01/07 05:28:22;;;;;;;4.32;1.08;;;2.40;99.90;;;;;;5001638;28;20054;-70
2024/01/07 05:30:49;;;;;;;4.47;0.98;;;2.40;99.90;;;;;;5006767;28;20139;-69
2024/01/07 05:33:16;;;;;;;10.88;1.20;;;2.50;99.90;;;;;;5006086;28;20054;-70
2024/01/07 05:35:43;;;;;;;5.47;0.95;;;2.40;99.90;;;;;;4996207;28;20050;-69
2024/01/07 05:38:10;;;;;;;9.10;1.13;;;2.40;99.90;;;;;;5004493;28;20049;-69
2024/01/07 05:40:36;;;;;;;5.35;1.20;;;2.40;99.90;;;;;;5007441;28;20046;-70
2024/01/07 05:43:03;;;;;;;2.13;1.08;;;2.40;99.90;;;;;;5000687;28;20485;-69
2024/01/07 05:45:30;;;;;;;5.72;1.13;;;2.40;99.90;;;;;;5004371;28;20151;-70
2024/01/07 05:47:57;;;;;;;9.07;1.52;;;2.50;99.90;;;;;;5005813;28;20289;-70
2024/01/07 05:50:24;;;;;;;4.03;1.00;;;2.40;99.90;;;;;;5006395;28;20058;-69
2024/01/07 05:52:51;;;;;;;2.40;1.17;;;2.40;99.90;;;;;;5001835;28;20070;-70
2024/01/07 05:55:17;;;;;;;4.45;1.00;;;2.40;99.90;;;;;;5006511;28;20049;-68
2024/01/07 05:57:44;;;;;;;4.57;1.10;;;2.50;99.90;;;;;;4976290;28;20046;-68
2024/01/07 06:00:12;;;;;;;7.15;1.65;;;2.40;99.90;;;;;;5006804;28;20056;-68
2024/01/07 06:02:39;;;;;;;6.82;1.38;;;2.40;99.90;;;;;;4988952;28;20133;-68
2024/01/07 06:05:07;;;;;;;6.32;1.00;;;2.40;99.90;;;;;;5005895;28;20100;-68
2024/01/07 06:07:34;;;;;;;3.58;0.75;;;2.40;99.90;;;;;;4989083;28;20429;-68
2024/01/07 06:10:01;;;;;;;10.75;1.98;;;2.40;99.90;;;;;;5004864;28;20045;-68
2024/01/07 06:12:28;;;;;;;2.85;1.33;;;2.40;99.90;;;;;;5005917;28;20041;-68
2024/01/07 06:14:55;;;;;;;1.80;1.00;;;2.40;99.90;;;;;;5004853;28;20070;-68
2024/01/07 06:17:21;;;;;;;3.85;0.90;;;2.40;99.90;;;;;;4997447;28;20057;-68
2024/01/07 06:19:48;;;;;;;7.43;2.13;;;2.40;99.90;;;;;;5005003;28;20132;-68
2024/01/07 06:22:15;;;;;;;8.18;1.50;;;2.40;99.90;;;;;;5005886;28;20057;-68
2024/01/07 06:24:42;;;;;;;5.10;1.02;;;2.30;99.90;;;;;;5004136;28;20063;-68
2024/01/07 06:27:09;;;;;;;3.10;0.80;;;2.40;99.90;;;;;;5004835;28;20062;-68
2024/01/07 06:29:35;;;;;;;3.65;1.27;;;2.30;99.90;;;;;;5006266;28;20077;-68
2024/01/07 06:32:03;;;;;;;1.50;0.90;;;2.30;99.90;;;;;;5005049;28;20042;-68
2024/01/07 06:34:30;;;;;;;5.47;1.05;;;2.30;99.90;;;;;;5005566;28;20104;-68
2024/01/07 06:36:57;;;;;;;4.75;2.03;;;2.30;99.90;;;;;;5004498;28;20426;-68
2024/01/07 06:39:26;;;;;;;4.03;0.90;;;2.30;99.90;;;;;;5006016;28;20049;-69
2024/01/07 06:41:54;;;;;;;5.63;1.33;;;2.40;99.90;;;;;;5001334;28;20043;-69
2024/01/07 06:44:20;;;;;;;5.30;2.05;;;2.30;99.90;;;;;;5008253;28;20068;-68
2024/01/07 06:46:47;;;;;;;5.40;1.08;;;2.30;99.90;;;;;;5007852;28;20347;-68
2024/01/07 06:49:14;;;;;;;5.78;1.15;;;2.30;99.90;;;;;;4993481;28;20058;-69
2024/01/07 06:51:41;;;;;;;3.05;1.33;;;2.30;99.90;;;;;;5005622;28;20585;-69
2024/01/07 06:54:08;;;;;;;4.97;0.90;;;2.20;99.90;;;;;;4994338;28;20042;-69
2024/01/07 06:56:38;;;;;;;4.30;1.20;;;2.20;99.90;;;;;;5001583;28;20452;-68
2024/01/07 06:59:05;;;;;;;7.68;0.93;;;2.20;99.90;;;;;;4987918;28;20050;-69
2024/01/07 07:01:31;;;;;;;10.10;0.85;;;2.10;99.90;;;;;;5007343;28;20042;-68
2024/01/07 07:03:58;;;;;;;3.90;1.10;;;2.10;99.90;;;;;;5016116;28;20050;-69
2024/01/07 07:06:25;;;;;;;5.97;1.05;;;2.10;99.90;;;;;;5016686;28;20050;-69
2024/01/07 07:08:52;;;;;;;1.65;0.75;;;2.10;99.90;;;;;;5013684;28;20048;-69
2024/01/07 07:11:19;;;;;;;9.38;0.88;;;2.30;99.90;;;;;;4995249;28;20056;-69
2024/01/07 07:13:46;;;;;;;4.93;1.08;;;2.10;99.90;;;;;;5006251;28;20374;-68
2024/01/07 07:16:13;;;;;;;5.60;1.60;;;2.20;99.90;;;;;;5002339;28;20092;-68
2024/01/07 07:18:39;;;;;;;3.42;1.10;;;2.10;99.90;;;;;;5008481;28;20045;-68
2024/01/07 07:21:06;;;;;;;2.58;0.70;;;2.10;99.90;;;;;;5009805;28;20046;-68
2024/01/07 07:23:33;;;;;;;2.67;1.00;;;2.10;99.90;;;;;;4990838;28;20053;-69
2024/01/07 07:26:00;;;;;;;1.95;0.90;;;2.10;99.90;;;;;;5008363;28;20476;-69
2024/01/07 07:28:27;;;;;;;3.63;1.35;;;2.20;99.90;;;;;;5007089;28;20054;-69
2024/01/07 07:30:53;;;;;;;2.15;1.02;;;2.10;99.90;;;;;;4990647;28;20417;-69
2024/01/07 07:33:20;;;;;;;7.03;2.03;;;2.10;99.90;;;;;;5007772;28;20488;-69
2024/01/07 07:35:48;;;;;;;4.50;1.13;;;2.10;99.90;;;;;;5010592;28;20073;-68
2024/01/07 07:38:14;;;;;;;4.00;0.98;;;2.10;99.90;;;;;;4989826;28;20069;-69
2024/01/07 07:40:41;;;;;;;2.40;0.85;;;2.10;99.90;;;;;;5003785;28;20042;-70
2024/01/07 07:43:09;;;;;;;10.95;1.58;;;2.10;99.90;;;;;;5001779;28;20046;-69
2024/01/07 07:45:36;;;;;;;3.63;0.90;;;2.20;99.90;;;;;;5004277;28;20053;-69
2024/01/07 07:48:03;;;;;;;7.43;1.25;;;2.20;99.90;;;;;;5003901;28;20486;-69
2024/01/07 07:50:30;;;;;;;9.55;1.15;;;2.10;99.90;;;;;;4998428;28;20557;-69
2024/01/07 07:52:57;;;;;;;3.22;0.90;;;2.10;99.90;;;;;;5008442;28;20334;-69
2024/01/07 07:55:23;;;;;;;7.32;1.00;;;2.10;99.90;;;;;;5007579;28;20050;-69
2024/01/07 07:57:51;;;;;;;2.05;0.82;;;2.10;99.90;;;;;;5001338;28;20060;-69
2024/01/07 08:00:19;;;;;;;4.53;0.85;;;2.00;99.90;;;;;;5003325;28;20054;-69
2024/01/07 08:02:45;;;;;;;2.25;0.90;;;2.00;99.90;;;;;;4999579;28;20570;-69
2024/01/07 08:05:13;;;;;;;2.15;0.88;;;2.10;99.90;;;;;;5002295;28;20050;-68
2024/01/07 08:07:40;;;;;;;6.72;1.83;;;2.00;99.90;;;;;;4987097;28;20042;-69
2024/01/07 08:10:08;;;;;;;2.67;0.85;;;2.00;99.90;;;;;;4983054;28;20050;-68
2024/01/07 08:12:35;;;;;;;8.75;1.60;;;2.00;99.90;;;;;;5007871;28;20492;-68
2024/01/07 08:15:02;;;;;;;1.45;0.85;;;2.00;99.90;;;;;;5003417;28;20053;-68
2024/01/07 08:17:29;;;;;;;1.35;1.10;;;2.00;99.90;;;;;;5007904;28;20099;-71
2024/01/07 08:19:56;;;;;;;6.63;1.35;;;2.00;99.90;;;;;;5003102;28;20108;-69
2024/01/07 08:22:23;;;;;;;9.75;3.17;;;2.00;99.90;;;;;;4998405;28;20049;-70
2024/01/07 08:24:50;;;;;;;4.50;1.00;;;2.10;99.90;;;;;;4987663;28;20256;-70
2024/01/07 08:27:17;;;;;;;5.40;1.10;;;2.00;99.90;;;;;;4985742;28;20061;-70
2024/01/07 08:29:44;;;;;;;2.95;1.20;;;2.00;99.90;;;;;;4988210;28;20050;-70
2024/01/07 08:32:12;;;;;;;3.63;1.10;;;2.20;99.90;;;;;;4986087;28;20113;-70
2024/01/07 08:34:42;;;;;;;9.43;1.33;;;2.00;99.90;;;;;;4988335;28;20069;-70
2024/01/07 08:37:09;;;;;;;3.85;1.30;;;2.00;99.90;;;;;;4988222;28;20120;-70
2024/01/07 08:39:36;;;;;;;8.45;1.20;;;2.00;99.90;;;;;;4987607;28;20054;-70
2024/01/07 08:42:04;;;;;;;5.25;1.65;;;2.10;99.90;;;;;;4996218;28;20128;-70
2024/01/07 08:44:31;;;;;;;3.25;1.30;;;2.10;99.90;;;;;;4988176;28;20133;-70
2024/01/07 08:47:00;;;;;;;5.47;1.15;;;2.10;99.90;;;;;;4987108;28;20050;-69
2024/01/07 08:49:30;;;;;;;7.05;1.27;;;2.10;99.90;;;;;;4985027;28;20399;-70
2024/01/07 08:51:57;;;;;;;2.90;1.17;;;2.20;99.90;;;;;;4986899;28;20493;-70
2024/01/07 08:54:25;;;;;;;8.43;1.08;;;2.40;99.90;;;;;;4987312;28;20053;-69
2024/01/07 08:56:52;;;;;;;4.00;2.00;;;2.20;99.90;;;;;;4984692;28;20047;-69
2024/01/07 08:59:18;;;;;;;5.50;1.23;;;2.20;99.90;;;;;;4986048;28;20046;-69
2024/01/07 09:01:45;;;;;;;3.47;1.40;;;2.20;99.90;;;;;;4979108;28;20121;-69
2024/01/07 09:04:12;;;;;;;4.70;1.10;;;2.30;99.90;;;;;;4984632;28;20046;-69
2024/01/07 09:06:39;;;;;;;2.72;0.95;;;2.30;99.90;;;;;;4976951;28;20038;-69
2024/01/07 09:09:06;;;;;;;1.42;1.13;;;2.30;99.90;;;;;;4985285;28;20086;-70
2024/01/07 09:11:33;;;;;;;2.63;1.08;;;2.30;99.90;;;;;;4981269;28;20046;-70
2024/01/07 09:14:00;;;;;;;2.75;1.05;;;2.40;99.90;;;;;;4985517;28;20394;-69
2024/01/07 09:16:27;;;;;;;1.60;0.95;;;2.40;99.90;;;;;;4984304;28;20100;-69
2024/01/07 09:18:54;;;;;;;7.07;1.05;;;2.50;99.90;;;;;;4974150;28;20042;-68
2024/01/07 09:21:23;;;;;;;7.40;1.13;;;2.50;99.90;;;;;;4986833;28;20362;-68
2024/01/07 09:23:49;;;;;;;6.80;1.35;;;2.60;99.90;;;;;;4978988;28;20057;-69
2024/01/07 09:26:16;;;;;;;2.40;0.70;;;2.60;99.90;;;;;;4980419;28;20046;-68
2024/01/07 09:28:43;;;;;;;4.40;0.93;;;2.70;99.90;;;;;;5006882;28;20054;-75
2024/01/07 09:31:10;;;;;;;3.15;0.90;;;2.70;99.90;;;;;;5006739;28;20230;-68
2024/01/07 09:33:37;;;;;;;2.15;0.93;;;2.80;99.90;;;;;;5003590;28;20054;-69
2024/01/07 09:36:05;;;;;;;6.53;1.30;;;2.80;99.90;;;;;;4999402;28;20044;-72
2024/01/07 09:38:53;;;;;;;2.75;1.13;;;2.80;99.90;;;;;;4984861;28;20162;-69
2024/01/07 09:41:20;;;;;;;11.60;1.80;;;2.90;99.90;;;;;;5005092;28;20049;-69
2024/01/07 09:43:47;;;;;;;5.65;1.20;;;2.90;99.90;;;;;;4986850;28;20139;-70
2024/01/07 09:46:14;;;;;;;4.07;1.38;;;3.00;99.90;;;;;;4999764;28;20062;-69
2024/01/07 09:48:41;;;;;;;5.80;1.27;;;3.10;99.90;;;;;;4968526;28;20042;-69
2024/01/07 09:51:08;;;;;;;4.28;1.38;;;3.10;99.90;;;;;;4982500;28;20057;-68
2024/01/07 09:53:35;;;;;;;5.18;1.10;;;3.10;99.90;;;;;;4981807;28;20112;-68
2024/01/07 09:56:15;;;;;;;4.90;1.67;;;3.20;99.90;;;;;;4983865;28;20054;-68
2024/01/07 09:58:42;;;;;;;9.40;1.13;;;3.10;99.90;;;;;;4981337;28;20054;-68
2024/01/07 10:01:10;;;;;;;8.23;1.45;;;3.20;99.90;;;;;;5002785;28;20530;-68
2024/01/07 10:03:37;;;;;;;1.77;0.95;;;3.20;99.90;;;;;;5003165;28;20141;-68
2024/01/07 10:06:05;;;;;;;4.53;1.30;;;3.20;99.90;;;;;;4983683;28;20109;-69
2024/01/07 10:08:32;;;;;;;4.60;1.60;;;3.30;99.90;;;;;;4997036;28;20053;-68
2024/01/07 10:11:01;;;;;;;6.95;1.40;;;3.30;99.90;;;;;;4981942;28;20444;-68
2024/01/07 10:13:28;;;;;;;6.63;1.42;;;3.30;99.90;;;;;;5002109;28;20108;-68
2024/01/07 10:15:55;;;;;;;6.13;1.20;;;3.30;99.90;;;;;;4996888;28;20086;-70
2024/01/07 10:18:22;;;;;;;6.15;0.95;;;3.40;99.90;;;;;;5003653;28;20076;-67
2024/01/07 10:20:49;;;;;;;5.88;1.33;;;3.40;99.90;;;;;;4973070;28;20054;-68
2024/01/07 10:23:19;;;;;;;2.30;1.02;;;3.50;99.90;;;;;;5006017;28;20050;-68
2024/01/07 10:25:47;;;;;;;4.50;0.90;;;3.50;99.90;;;;;;5000615;28;20381;-69
2024/01/07 10:28:14;;;;;;;6.70;1.65;;;3.50;99.90;;;;;;4999465;28;20576;-68
2024/01/07 10:30:42;;;;;;;4.22;1.50;;;3.50;99.90;;;;;;5000872;28;20111;-69
2024/01/07 10:33:08;;;;;;;7.43;1.27;;;3.50;99.90;;;;;;4970306;28;20137;-69
2024/01/07 10:35:37;;;;;;;7.95;1.08;;;3.60;99.90;;;;;;4998458;28;20501;-69
2024/01/07 10:38:04;;;;;;;7.00;1.30;;;3.60;99.90;;;;;;4970346;28;20045;-68
2024/01/07 10:40:31;;;;;;;8.45;1.73;;;3.60;99.90;;;;;;4983255;28;20105;-69
2024/01/07 10:42:58;;;;;;;5.78;1.60;;;3.60;99.90;;;;;;4969378;28;20043;-69
2024/01/07 10:45:25;;;;;;;9.13;1.98;;;3.70;99.90;;;;;;4982542;28;20054;-69
2024/01/07 10:47:55;;;;;;;5.32;1.23;;;3.70;99.90;;;;;;4984123;28;20042;-63
2024/01/07 10:50:22;;;;;;;7.80;1.35;;;3.70;99.90;;;;;;5003561;28;20424;-69
2024/01/07 10:52:50;;;;;;;2.33;1.35;;;3.70;99.90;;;;;;4994022;28;20120;-68
2024/01/07 10:55:18;;;;;;;3.40;1.15;;;3.80;99.90;;;;;;4997829;28;20062;-68
2024/01/07 10:57:49;;;;;;;4.95;1.48;;;3.70;99.90;;;;;;4985153;28;20462;-69
2024/01/07 11:00:18;;;;;;;10.90;1.02;;;3.80;99.90;;;;;;4999098;28;20413;-69
2024/01/07 11:03:14;;;;;;;3.70;1.00;;;3.80;99.90;;;;;;4985133;28;20556;-68
2024/01/07 11:05:51;;;;;;;3.35;1.65;;;3.80;99.90;;;;;;4628692;28;10000317;-68
2024/01/07 11:08:34;;;;;;;4.97;1.23;;;3.80;99.90;;;;;;4981146;28;20466;-69
2024/01/07 11:11:15;;;;;;;9.52;1.83;;;3.80;99.90;;;;;;4981043;28;20217;-68
2024/01/07 11:13:42;;;;;;;9.07;1.52;;;3.70;99.90;;;;;;4967350;28;20165;-69
2024/01/07 11:16:09;;;;;;;1.38;0.90;;;3.70;99.90;;;;;;4993853;28;20050;-68
2024/01/07 11:18:45;;;;;;;8.45;1.25;;;3.70;99.90;;;;;;4996652;28;20376;-68
2024/01/07 11:21:26;;;;;;;4.43;1.27;;;3.80;99.90;;;;;;4995192;28;20076;-69
2024/01/07 11:23:53;;;;;;;6.45;1.40;;;3.90;99.90;;;;;;4998120;28;20382;-69
2024/01/07 11:26:20;;;;;;;6.07;1.42;;;3.90;99.90;;;;;;4996231;28;21363;-68
2024/01/07 11:28:56;;;;;;;4.75;1.10;;;3.90;99.90;;;;;;4993721;28;20086;-69
2024/01/07 11:31:39;;;;;;;4.60;1.42;;;3.90;99.90;;;;;;4988484;28;20054;-68
2024/01/07 11:34:06;;;;;;;7.70;1.58;;;3.90;99.90;;;;;;4988028;28;20053;-67
2024/01/07 11:36:37;;;;;;;6.85;1.83;;;3.90;99.90;;;;;;4991246;28;20050;-69
2024/01/07 11:39:06;;;;;;;4.88;1.42;;;3.90;99.90;;;;;;4978314;28;20119;-69
2024/01/07 11:41:33;;;;;;;7.93;1.42;;;4.00;99.90;;;;;;4981222;28;20050;-70
2024/01/07 11:44:00;;;;;;;5.47;1.45;;;4.10;99.90;;;;;;4964168;28;20144;-69
2024/01/07 11:46:32;;;;;;;5.85;1.25;;;4.10;99.90;;;;;;5004029;28;20050;-68
2024/01/07 11:48:59;;;;;;;5.85;2.03;;;4.20;99.90;;;;;;4998693;28;20050;-68
2024/01/07 11:51:31;;;;;;;8.80;1.80;;;4.20;99.90;;;;;;4999284;28;20065;-67
2024/01/07 11:53:59;;;;;;;8.38;3.33;;;4.30;99.90;;;;;;4978969;28;20050;-68
2024/01/07 11:56:26;;;;;;;8.38;1.92;;;4.30;99.90;;;;;;5001298;28;20068;-66
2024/01/07 11:58:53;;;;;;;4.80;1.30;;;4.30;99.90;;;;;;4980928;28;20104;-66
2024/01/07 12:01:20;;;;;;;5.78;1.45;;;4.40;99.90;;;;;;5000121;28;20058;-67
2024/01/07 12:03:47;;;;;;;5.10;1.38;;;4.40;99.90;;;;;;4997399;28;20508;-67
2024/01/07 12:06:15;;;;;;;8.32;1.80;;;4.40;99.90;;;;;;5003403;28;20057;-66
2024/01/07 12:08:45;;;;;;;8.15;1.48;;;4.50;99.90;;;;;;5005863;28;20037;-67
2024/01/07 12:11:13;;;;;;;6.38;2.33;;;4.50;99.90;;;;;;5003354;28;20105;-70
2024/01/07 12:13:40;;;;;;;4.32;1.60;;;4.50;99.90;;;;;;5004906;28;20538;-67
2024/01/07 12:16:07;;;;;;;5.95;1.92;;;4.50;99.90;;;;;;4979654;28;20085;-66
2024/01/07 12:18:36;;;;;;;18.35;4.35;;;4.60;99.90;;;;;;4998109;28;20068;-67
2024/01/07 12:21:04;;;;;;;8.13;2.95;;;4.60;99.90;;;;;;5005547;28;20046;-67
2024/01/07 12:23:37;;;;;;;8.30;1.73;;;4.60;99.90;;;;;;4997850;28;20084;-67
2024/01/07 12:26:10;;;;;;;6.15;1.77;;;4.70;99.90;;;;;;5000885;28;20045;-68
2024/01/07 12:28:37;;;;;;;9.27;3.40;;;4.60;99.90;;;;;;5004508;28;20081;-67
2024/01/07 12:31:04;;;;;;;5.95;2.03;;;4.60;99.90;;;;;;5005307;28;20484;-67
2024/01/07 12:33:32;;;;;;;9.48;1.33;;;4.60;99.90;;;;;;5005816;28;20242;-68
2024/01/07 12:36:00;;;;;;;9.18;2.38;;;4.60;99.90;;;;;;5004114;28;20064;-67
2024/01/07 12:38:27;;;;;;;7.90;1.63;;;4.60;99.90;;;;;;5005652;28;20049;-67
2024/01/07 12:40:54;;;;;;;6.15;1.80;;;4.70;99.90;;;;;;4992669;28;20046;-66
2024/01/07 12:43:22;;;;;;;8.13;1.92;;;4.70;99.90;;;;;;4986048;28;20562;-66
2024/01/07 12:45:49;;;;;;;7.63;1.90;;;4.70;99.90;;;;;;4983652;28;20046;-65
2024/01/07 12:48:16;;;;;;;9.77;1.85;;;4.70;99.90;;;;;;4998329;28;20060;-70
2024/01/07 12:50:43;;;;;;;6.32;1.42;;;4.80;99.90;;;;;;5003790;28;20731;-67
2024/01/07 12:53:10;;;;;;;7.82;1.80;;;4.80;99.90;;;;;;4999956;28;20750;-67
2024/01/07 12:55:36;;;;;;;9.40;1.67;;;4.80;99.90;;;;;;4989692;28;20057;-66